createdAt,value
2023-03-21T00:03:49.158Z,17.43
2023-03-21T00:06:16.666Z,13.87
2023-03-21T00:08:44.615Z,18.20
2023-03-21T00:11:12.961Z,16.23
2023-03-21T00:16:45.740Z,21.57
2023-03-21T00:19:15.851Z,19.87
2023-03-21T00:22:03.262Z,17.13
2023-03-21T00:24:31.728Z,17.10
2023-03-21T00:27:10.751Z,18.60
2023-03-21T00:29:46.739Z,16.77
2023-03-21T00:32:14.172Z,18.60
2023-03-21T00:34:57.667Z,13.30
2023-03-21T00:37:29.930Z,21.30
2023-03-21T00:39:57.432Z,16.97
2023-03-21T00:42:24.964Z,14.47
2023-03-21T00:44:52.428Z,18.63
2023-03-21T00:47:19.941Z,17.43
2023-03-21T00:52:40.941Z,19.17
2023-03-21T00:55:12.212Z,16.77
2023-03-21T00:57:39.925Z,17.83
2023-03-21T01:00:10.189Z,14.83
2023-03-21T01:02:37.852Z,21.30
2023-03-21T01:05:05.799Z,14.90
2023-03-21T01:07:33.249Z,22.63
2023-03-21T01:10:02.077Z,22.93
2023-03-21T01:12:29.515Z,17.90
2023-03-21T01:14:57.615Z,18.03
2023-03-21T01:20:27.639Z,21.10
2023-03-21T01:22:55.102Z,21.70
2023-03-21T01:25:23.886Z,23.53
2023-03-21T01:27:51.338Z,21.27
2023-03-21T01:30:22.834Z,19.80
2023-03-21T01:32:51.405Z,21.83
2023-03-21T01:35:18.843Z,19.53
2023-03-21T01:40:51.038Z,21.67
2023-03-21T01:43:26.567Z,23.33
2023-03-21T01:46:21.205Z,24.93
2023-03-21T01:49:04.660Z,22.93
2023-03-21T01:51:35.079Z,27.33
2023-03-21T01:54:03.643Z,27.13
2023-03-21T01:56:36.387Z,26.73
2023-03-21T02:02:23.068Z,29.10
2023-03-21T02:08:13.123Z,22.50
2023-03-21T02:10:44.330Z,29.87
2023-03-21T02:13:15.897Z,27.00
2023-03-21T02:15:48.130Z,23.33
2023-03-21T02:18:28.224Z,20.63
2023-03-21T02:24:25.787Z,27.20
2023-03-21T02:27:03.871Z,24.37
2023-03-21T02:30:05.514Z,26.47
2023-03-21T02:32:43.998Z,23.63
2023-03-21T02:35:26.050Z,24.87
2023-03-21T02:38:00.532Z,27.67
2023-03-21T02:40:34.028Z,27.60
2023-03-21T02:43:11.613Z,24.50
2023-03-21T02:45:48.647Z,23.13
2023-03-21T02:48:29.219Z,30.80
2023-03-21T02:51:00.166Z,30.17
2023-03-21T02:56:19.964Z,27.90
2023-03-21T02:58:53.448Z,26.20
2023-03-21T03:01:21.958Z,28.23
2023-03-21T03:03:49.919Z,31.13
2023-03-21T03:09:16.747Z,34.00
2023-03-21T03:11:45.777Z,29.77
2023-03-21T03:14:56.482Z,29.77
2023-03-21T03:17:39.193Z,30.20
2023-03-21T03:23:02.016Z,29.90
2023-03-21T03:25:42.055Z,31.60
2023-03-21T03:28:16.506Z,32.17
2023-03-21T03:30:54.243Z,30.80
2023-03-21T03:33:31.749Z,32.73
2023-03-21T03:36:05.520Z,35.23
2023-03-21T03:38:36.527Z,34.90
2023-03-21T03:43:56.742Z,36.37
2023-03-21T03:46:31.991Z,37.30
2023-03-21T03:49:02.525Z,37.30
2023-03-21T03:51:33.660Z,29.17
2023-03-21T03:57:13.880Z,32.60
2023-03-21T03:59:44.850Z,34.93
2023-03-21T04:02:22.189Z,29.77
2023-03-21T04:04:52.847Z,35.90
2023-03-21T04:07:21.350Z,31.53
2023-03-21T04:09:50.291Z,32.27
2023-03-21T04:15:34.037Z,32.47
2023-03-21T04:20:57.991Z,28.43
2023-03-21T04:23:29.899Z,37.70
2023-03-21T04:25:57.607Z,33.93
2023-03-21T04:28:37.204Z,34.53
2023-03-21T04:31:35.900Z,30.83
2023-03-21T04:34:12.260Z,28.20
2023-03-21T04:39:47.507Z,28.33
2023-03-21T04:42:15.572Z,34.40
2023-03-21T04:44:43.066Z,34.47
2023-03-21T04:47:13.153Z,37.13
2023-03-21T04:49:40.627Z,32.67
2023-03-21T04:55:10.115Z,33.27
2023-03-21T04:57:39.628Z,33.30
2023-03-21T05:00:13.586Z,26.73
2023-03-21T05:02:42.467Z,26.20
2023-03-21T05:05:11.976Z,29.83
2023-03-21T05:07:39.949Z,31.17
2023-03-21T05:10:10.050Z,26.20
2023-03-21T05:12:39.877Z,38.33
2023-03-21T05:15:08.917Z,29.63
2023-03-21T05:17:37.484Z,30.87
2023-03-21T05:20:09.585Z,31.23
2023-03-21T05:22:40.755Z,29.80
2023-03-21T05:25:12.169Z,32.13
2023-03-21T05:28:01.911Z,31.20
2023-03-21T05:33:19.566Z,31.27
2023-03-21T05:35:51.162Z,26.03
2023-03-21T05:38:18.791Z,35.70
2023-03-21T05:40:52.349Z,27.30
2023-03-21T05:43:19.927Z,30.83
2023-03-21T05:45:48.963Z,30.67
2023-03-21T05:48:18.456Z,27.63
2023-03-21T05:54:16.548Z,29.73
2023-03-21T05:59:52.659Z,28.67
2023-03-21T06:02:20.910Z,25.13
2023-03-21T06:04:49.590Z,24.97
2023-03-21T06:07:18.261Z,22.17
2023-03-21T06:09:47.022Z,23.70
2023-03-21T06:15:12.453Z,18.40
2023-03-21T06:17:53.922Z,22.53
2023-03-21T06:20:21.645Z,19.80
2023-03-21T06:22:53.407Z,18.30
2023-03-21T06:25:22.187Z,22.73
2023-03-21T06:27:49.849Z,19.17
2023-03-21T06:33:17.631Z,21.10
2023-03-21T06:35:45.681Z,22.03
2023-03-21T06:41:17.907Z,19.43
2023-03-21T06:43:54.362Z,21.33
2023-03-21T06:46:22.180Z,21.83
2023-03-21T06:48:49.787Z,20.83
2023-03-21T06:54:17.628Z,19.93
2023-03-21T06:56:59.899Z,19.93
2023-03-21T06:59:31.365Z,21.23
2023-03-21T07:02:02.470Z,21.93
2023-03-21T07:04:31.191Z,18.00
2023-03-21T07:06:59.049Z,20.37
2023-03-21T07:09:28.094Z,25.33
2023-03-21T07:11:59.708Z,20.07
2023-03-21T07:17:35.567Z,21.97
2023-03-21T07:20:04.551Z,20.63
2023-03-21T07:22:42.363Z,17.93
2023-03-21T07:25:10.827Z,20.93
2023-03-21T07:30:44.083Z,20.13
2023-03-21T07:33:11.755Z,23.33
2023-03-21T07:35:40.267Z,19.97
2023-03-21T07:38:08.048Z,21.90
2023-03-21T07:40:36.195Z,19.10
2023-03-21T07:43:04.141Z,21.23
2023-03-21T07:45:35.155Z,23.07
2023-03-21T07:48:04.204Z,19.43
2023-03-21T07:50:34.581Z,21.40
2023-03-21T07:53:02.684Z,23.77
2023-03-21T07:55:30.450Z,18.90
2023-03-21T07:57:58.338Z,16.03
2023-03-21T08:00:26.122Z,17.97
2023-03-21T08:02:58.553Z,20.77
2023-03-21T08:05:30.098Z,22.57
2023-03-21T08:07:57.986Z,20.33
2023-03-21T08:10:25.929Z,17.73
2023-03-21T08:12:53.562Z,16.30
2023-03-21T08:18:19.582Z,18.97
2023-03-21T08:20:52.918Z,17.80
2023-03-21T08:23:20.879Z,18.70
2023-03-21T08:25:52.675Z,12.10
2023-03-21T08:28:20.629Z,15.77
2023-03-21T08:30:48.384Z,16.07
2023-03-21T08:33:17.219Z,21.43
2023-03-21T08:38:49.012Z,22.47
2023-03-21T08:41:16.466Z,16.53
2023-03-21T08:46:46.582Z,21.07
2023-03-21T08:49:14.052Z,15.87
2023-03-21T08:51:41.489Z,19.17
2023-03-21T08:54:19.435Z,20.60
2023-03-21T08:56:46.930Z,22.03
2023-03-21T08:59:15.611Z,17.53
2023-03-21T09:04:31.829Z,18.33
2023-03-21T09:07:01.331Z,20.33
2023-03-21T09:09:30.124Z,19.27
2023-03-21T09:12:08.908Z,17.53
2023-03-21T09:14:36.448Z,17.87
2023-03-21T09:17:04.000Z,20.40
2023-03-21T09:19:31.960Z,17.83
2023-03-21T09:24:57.401Z,20.53
2023-03-21T09:27:28.012Z,21.90
2023-03-21T09:29:55.570Z,19.53
2023-03-21T09:32:23.550Z,22.80
2023-03-21T09:34:51.356Z,23.87
2023-03-21T09:37:18.795Z,21.60
2023-03-21T09:39:46.244Z,22.57
2023-03-21T09:42:26.558Z,23.03
2023-03-21T09:45:02.559Z,22.57
2023-03-21T09:47:32.992Z,24.43
2023-03-21T09:50:13.718Z,27.43
2023-03-21T09:52:47.975Z,23.80
2023-03-21T09:55:19.926Z,26.53
2023-03-21T09:57:51.581Z,24.30
2023-03-21T10:00:24.817Z,25.33
2023-03-21T10:03:03.001Z,21.60
2023-03-21T10:05:32.517Z,25.03
2023-03-21T10:08:04.675Z,21.33
2023-03-21T10:10:36.871Z,18.77
2023-03-21T10:13:06.320Z,22.07
2023-03-21T10:15:33.889Z,21.20
2023-03-21T10:18:02.785Z,23.80
2023-03-21T10:20:32.371Z,24.80
2023-03-21T10:23:01.176Z,20.67
2023-03-21T10:25:32.859Z,22.50
2023-03-21T10:28:01.106Z,23.97
2023-03-21T10:30:38.277Z,17.57
2023-03-21T10:33:09.482Z,25.63
2023-03-21T10:35:38.074Z,19.37
2023-03-21T10:41:08.567Z,18.33
2023-03-21T10:43:40.657Z,14.83
2023-03-21T10:46:13.680Z,18.03
2023-03-21T10:48:46.139Z,16.63
2023-03-21T10:51:18.396Z,16.43
2023-03-21T10:56:48.548Z,19.73
2023-03-21T10:59:20.580Z,18.17
2023-03-21T11:01:51.503Z,20.67
2023-03-21T11:04:21.917Z,14.60
2023-03-21T11:06:54.730Z,17.63
2023-03-21T11:09:24.886Z,15.80
2023-03-21T11:11:55.242Z,17.03
2023-03-21T11:17:30.277Z,19.00
2023-03-21T11:19:59.490Z,17.63
2023-03-21T11:22:29.885Z,18.83
2023-03-21T11:25:00.442Z,16.07
2023-03-21T11:27:30.040Z,21.33
2023-03-21T11:29:59.766Z,14.10
2023-03-21T11:32:34.781Z,15.90
2023-03-21T11:37:53.301Z,20.90
2023-03-21T11:40:23.163Z,13.93
2023-03-21T11:42:52.674Z,13.70
2023-03-21T11:45:21.950Z,22.00
2023-03-21T11:47:52.037Z,13.90
2023-03-21T11:50:21.972Z,18.60
2023-03-21T11:52:57.875Z,16.10
2023-03-21T11:55:41.734Z,16.90
2023-03-21T11:58:23.478Z,15.00
2023-03-21T12:00:57.151Z,16.30
2023-03-21T12:03:50.673Z,15.67
2023-03-21T12:06:23.976Z,13.47
2023-03-21T12:12:10.797Z,13.30
2023-03-21T12:17:46.247Z,12.23
2023-03-21T12:20:27.894Z,13.10
2023-03-21T12:23:03.586Z,17.17
2023-03-21T12:25:33.799Z,22.20
2023-03-21T12:28:09.625Z,13.27
2023-03-21T12:30:44.081Z,17.10
2023-03-21T12:33:19.648Z,17.53
2023-03-21T12:35:56.144Z,16.53
2023-03-21T12:38:26.029Z,16.30
2023-03-21T12:41:10.321Z,11.77
2023-03-21T12:43:43.345Z,13.00
2023-03-21T12:48:49.989Z,12.37
2023-03-21T12:51:20.847Z,15.60
2023-03-21T12:53:55.732Z,12.40
2023-03-21T12:56:25.499Z,17.13
2023-03-21T12:58:57.200Z,17.77
2023-03-21T13:04:33.274Z,11.07
2023-03-21T13:07:04.784Z,11.53
2023-03-21T13:09:38.049Z,14.03
2023-03-21T13:12:16.938Z,11.43
2023-03-21T13:14:48.647Z,11.37
2023-03-21T13:17:23.290Z,11.97
2023-03-21T13:19:55.572Z,11.13
2023-03-21T13:22:26.960Z,12.50
2023-03-21T13:24:59.046Z,10.20
2023-03-21T13:27:29.407Z,11.70
2023-03-21T13:30:00.920Z,11.93
2023-03-21T13:32:30.669Z,10.47
2023-03-21T13:35:00.998Z,13.90
2023-03-21T13:37:33.099Z,8.70
2023-03-21T13:40:02.270Z,9.63
2023-03-21T13:42:33.376Z,12.67
2023-03-21T13:45:02.718Z,12.17
2023-03-21T13:47:37.159Z,9.10
2023-03-21T13:50:34.934Z,10.30
2023-03-21T13:53:21.103Z,12.40
2023-03-21T13:55:59.605Z,10.33
2023-03-21T13:58:35.139Z,7.03
2023-03-21T14:01:24.004Z,8.37
2023-03-21T14:03:59.155Z,10.27
2023-03-21T14:06:33.015Z,8.43
2023-03-21T14:09:02.239Z,7.67
2023-03-21T14:11:30.866Z,8.67
2023-03-21T14:14:00.291Z,7.17
2023-03-21T14:16:29.322Z,7.83
2023-03-21T14:18:58.521Z,11.93
2023-03-21T14:21:28.035Z,7.43
2023-03-21T14:24:00.219Z,8.83
2023-03-21T14:26:32.280Z,9.67
2023-03-21T14:29:00.360Z,6.77
2023-03-21T14:31:28.015Z,6.43
2023-03-21T14:36:51.729Z,7.57
2023-03-21T14:39:27.270Z,8.33
2023-03-21T14:41:57.820Z,7.07
2023-03-21T14:44:27.561Z,9.60
2023-03-21T14:47:01.370Z,9.73
2023-03-21T14:49:54.133Z,7.13
2023-03-21T14:52:24.927Z,7.10
2023-03-21T14:57:42.004Z,6.40
2023-03-21T15:00:16.836Z,7.27
2023-03-21T15:02:45.850Z,8.73
2023-03-21T15:05:18.327Z,10.83
2023-03-21T15:07:53.907Z,8.87
2023-03-21T15:10:21.662Z,5.33
2023-03-21T15:12:55.676Z,8.03
2023-03-21T15:15:27.342Z,7.60
2023-03-21T15:17:56.840Z,8.47
2023-03-21T15:20:27.791Z,5.70
2023-03-21T15:26:07.856Z,6.93
2023-03-21T15:28:37.081Z,5.10
2023-03-21T15:31:05.485Z,5.53
2023-03-21T15:33:33.086Z,7.77
2023-03-21T15:36:00.989Z,5.23
2023-03-21T15:38:33.176Z,7.43
2023-03-21T15:41:17.788Z,5.13
2023-03-21T15:43:46.714Z,7.27
2023-03-21T15:46:15.646Z,6.43
2023-03-21T15:48:43.128Z,7.90
2023-03-21T15:51:16.624Z,5.90
2023-03-21T15:53:44.562Z,4.90
2023-03-21T15:56:15.943Z,6.37
2023-03-21T15:58:46.958Z,4.47
2023-03-21T16:01:17.064Z,5.17
2023-03-21T16:03:47.024Z,5.27
2023-03-21T16:06:19.782Z,4.30
2023-03-21T16:08:48.937Z,4.77
2023-03-21T16:11:24.517Z,7.10
2023-03-21T16:13:55.262Z,4.60
2023-03-21T16:16:24.823Z,7.40
2023-03-21T16:18:53.433Z,4.97
2023-03-21T16:21:22.517Z,4.80
2023-03-21T16:26:42.496Z,4.33
2023-03-21T16:29:13.783Z,5.37
2023-03-21T16:31:41.329Z,5.97
2023-03-21T16:34:08.849Z,5.57
2023-03-21T16:36:38.333Z,5.30
2023-03-21T16:42:10.600Z,4.07
2023-03-21T16:44:40.127Z,4.03
2023-03-21T16:47:15.502Z,6.90
2023-03-21T16:49:43.026Z,4.87
2023-03-21T16:54:58.622Z,4.60
2023-03-21T17:00:30.742Z,5.77
2023-03-21T17:03:01.768Z,4.63
2023-03-21T17:05:31.139Z,4.90
2023-03-21T17:08:01.946Z,4.50
2023-03-21T17:13:27.620Z,6.43
2023-03-21T17:15:59.059Z,5.50
2023-03-21T17:18:26.528Z,5.40
2023-03-21T17:20:53.987Z,6.90
2023-03-21T17:26:10.605Z,6.77
2023-03-21T17:28:38.302Z,5.50
2023-03-21T17:31:08.030Z,7.73
2023-03-21T17:33:35.579Z,6.43
2023-03-21T17:38:52.719Z,5.17
2023-03-21T17:41:20.827Z,4.97
2023-03-21T17:43:48.819Z,4.93
2023-03-21T17:46:19.237Z,5.57
2023-03-21T17:51:46.802Z,6.07
2023-03-21T17:54:14.275Z,7.60
2023-03-21T17:56:42.003Z,5.63
2023-03-21T17:59:13.607Z,5.60
2023-03-21T18:04:41.045Z,7.80
2023-03-21T18:07:14.010Z,5.97
2023-03-21T18:10:14.434Z,6.13
2023-03-21T18:12:41.953Z,4.97
2023-03-21T18:15:14.243Z,6.53
2023-03-21T18:17:42.858Z,6.47
2023-03-21T18:20:14.796Z,7.47
2023-03-21T18:22:43.664Z,5.60
2023-03-21T18:25:11.611Z,6.10
2023-03-21T18:28:02.090Z,5.13
2023-03-21T18:33:28.111Z,4.60
2023-03-21T18:36:00.440Z,5.10
2023-03-21T18:41:23.602Z,5.67
2023-03-21T18:44:15.397Z,6.27
2023-03-21T18:46:40.342Z,7.57
2023-03-21T18:49:51.999Z,6.37
2023-03-21T18:54:55.941Z,6.50
2023-03-21T18:57:39.372Z,5.43
2023-03-21T19:00:12.432Z,5.80
2023-03-21T19:02:45.628Z,7.73
2023-03-21T19:05:14.694Z,6.77
2023-03-21T19:07:42.267Z,5.30
2023-03-21T19:10:17.950Z,5.70
2023-03-21T19:15:35.244Z,6.80
2023-03-21T19:20:53.494Z,7.37
2023-03-21T19:23:21.922Z,7.17
2023-03-21T19:25:50.664Z,6.63
2023-03-21T19:28:18.086Z,6.40
2023-03-21T19:30:50.214Z,6.17
2023-03-21T19:36:22.775Z,7.67
2023-03-21T19:41:50.314Z,7.63
2023-03-21T19:44:17.999Z,6.27
2023-03-21T19:46:48.265Z,6.27
2023-03-21T19:49:19.854Z,7.67
2023-03-21T19:51:47.503Z,8.03
2023-03-21T19:54:17.184Z,6.80
2023-03-21T19:56:47.644Z,8.40
2023-03-21T20:02:35.126Z,8.57
2023-03-21T20:05:05.356Z,5.83
2023-03-21T20:07:33.148Z,6.67
2023-03-21T20:10:01.061Z,7.10
2023-03-21T20:12:53.646Z,6.37
2023-03-21T20:15:22.155Z,8.00
2023-03-21T20:17:53.556Z,8.40
2023-03-21T20:23:20.958Z,6.00
2023-03-21T20:25:49.000Z,7.13
2023-03-21T20:28:25.802Z,7.27
2023-03-21T20:30:58.574Z,7.73
2023-03-21T20:33:27.919Z,10.80
2023-03-21T20:38:49.906Z,8.73
2023-03-21T20:41:17.385Z,11.27
2023-03-21T20:44:34.313Z,7.00
2023-03-21T20:49:16.505Z,9.97
2023-03-21T20:54:32.118Z,7.00
2023-03-21T20:56:59.559Z,8.93
2023-03-21T21:02:26.418Z,8.67
2023-03-21T21:05:24.182Z,9.97
2023-03-21T21:07:43.381Z,10.87
2023-03-21T21:10:14.127Z,9.27
2023-03-21T21:13:13.578Z,10.00
2023-03-21T21:15:41.051Z,9.67
2023-03-21T21:18:09.820Z,11.63
2023-03-21T21:20:39.252Z,14.27
2023-03-21T21:23:09.509Z,11.83
2023-03-21T21:25:37.340Z,8.23
2023-03-21T21:28:28.732Z,9.20
2023-03-21T21:30:58.237Z,11.80
2023-03-21T21:36:16.079Z,9.10
2023-03-21T21:38:43.603Z,10.27
2023-03-21T21:41:17.477Z,7.90
2023-03-21T21:43:44.996Z,7.67
2023-03-21T21:46:12.536Z,8.30
2023-03-21T21:51:30.175Z,10.47
2023-03-21T21:53:57.693Z,8.27
2023-03-21T21:56:32.362Z,15.07
2023-03-21T21:59:01.995Z,8.20
2023-03-21T22:01:30.919Z,11.03
2023-03-21T22:04:06.013Z,9.23
2023-03-21T22:06:35.234Z,9.67
2023-03-21T22:09:03.859Z,9.87
2023-03-21T22:14:29.595Z,8.00
2023-03-21T22:16:58.057Z,10.10
2023-03-21T22:19:25.794Z,9.47
2023-03-21T22:24:57.103Z,7.90
2023-03-21T22:27:24.644Z,8.17
2023-03-21T22:29:52.085Z,9.93
2023-03-21T22:32:20.576Z,12.27
2023-03-21T22:34:48.053Z,8.37
2023-03-21T22:37:15.656Z,8.23
2023-03-21T22:39:43.388Z,8.70
2023-03-21T22:42:12.155Z,11.70
2023-03-21T22:44:39.562Z,9.10
2023-03-21T22:47:08.746Z,10.13
2023-03-21T22:49:36.399Z,9.90
2023-03-21T22:52:05.519Z,11.40
2023-03-21T22:57:36.946Z,9.90
2023-03-21T23:00:12.833Z,10.60
2023-03-21T23:02:40.596Z,10.20
2023-03-21T23:05:08.747Z,7.87
2023-03-21T23:07:36.280Z,8.07
2023-03-21T23:10:05.036Z,9.47
2023-03-21T23:15:46.050Z,11.20
2023-03-21T23:18:13.531Z,12.57
2023-03-21T23:20:41.512Z,8.40
2023-03-21T23:23:09.227Z,8.00
2023-03-21T23:25:37.762Z,8.30
2023-03-21T23:28:07.256Z,12.43
2023-03-21T23:30:34.720Z,9.13
2023-03-21T23:33:03.477Z,9.00
2023-03-21T23:35:35.288Z,9.03
2023-03-21T23:38:02.959Z,8.70
2023-03-21T23:43:32.642Z,9.47
2023-03-21T23:46:00.305Z,8.50
2023-03-21T23:48:29.440Z,10.33
2023-03-21T23:50:57.331Z,10.93
2023-03-21T23:53:25.074Z,9.67
2023-03-21T23:55:52.617Z,8.50
2023-03-21T23:58:20.379Z,9.90
